Terminal Aerodrome Forecast
Issued by NWS Wilmington, OH

Current Version | Previous Version | Text Only | Print | Product List | Glossary Off
Versions: 1 2 3 4 5 6 7 8 9 10 11 12 13 14 15 16 17 18 19 20 21

000
FTUS41 KILN 291400 AAA
TAFILN
TAF AMD
KILN 291404Z 2914/3012 32005KT P6SM SCT015 BKN035
     FM291600 30007KT P6SM BKN040
     FM300100 27004KT P6SM SCT050=

USA.gov is the U.S. government's official web portal to all federal, state and local government web resources and services.